createdAt,value
2023-02-15T00:03:27.690Z,1.4
2023-02-15T00:13:28.592Z,1.1
2023-02-15T00:23:29.557Z,1.2
2023-02-15T00:33:30.515Z,1.4
2023-02-15T00:43:31.490Z,1.6
2023-02-15T00:53:32.527Z,1.1
2023-02-15T01:03:33.421Z,1.4
2023-02-15T01:13:34.323Z,1.1
2023-02-15T01:23:35.140Z,1.6
2023-02-15T01:33:36.150Z,1.2
2023-02-15T01:43:37.105Z,1.7
2023-02-15T01:53:37.999Z,1.7
2023-02-15T02:03:38.940Z,2.5
2023-02-15T02:13:39.731Z,2.4
2023-02-15T02:23:40.889Z,2.8
2023-02-15T02:33:41.536Z,2.9
2023-02-15T02:43:42.389Z,3.4
2023-02-15T02:53:43.147Z,2.2
2023-02-15T03:03:44.121Z,2.2
2023-02-15T03:13:44.865Z,2
2023-02-15T03:23:45.645Z,1.9
2023-02-15T03:33:46.641Z,1.9
2023-02-15T03:43:47.248Z,1.7
2023-02-15T03:53:48.221Z,1.7
2023-02-15T04:03:48.986Z,1.4
2023-02-15T04:13:49.614Z,1.8
2023-02-15T04:23:50.541Z,1.2
2023-02-15T04:33:51.275Z,1.5
2023-02-15T04:43:52.046Z,1.4
2023-02-15T04:53:52.714Z,1.7
2023-02-15T05:03:53.340Z,1.6
2023-02-15T05:13:54.097Z,1.4
2023-02-15T05:23:54.751Z,1.1
2023-02-15T05:33:55.540Z,0.9
2023-02-15T05:43:56.203Z,1
2023-02-15T05:53:57.000Z,0.8
2023-02-15T06:03:57.769Z,0.9
2023-02-15T06:13:58.236Z,1
2023-02-15T06:23:58.939Z,0.9
2023-02-15T06:33:59.549Z,0.7
2023-02-15T06:44:00.274Z,0.8
2023-02-15T06:54:01.098Z,0.8
2023-02-15T07:04:02.008Z,0.8
2023-02-15T07:14:02.757Z,1.2
2023-02-15T07:24:03.327Z,0.9
2023-02-15T07:34:03.990Z,0.7
2023-02-15T07:44:04.818Z,0.9
2023-02-15T07:54:05.481Z,0.7
2023-02-15T08:04:06.294Z,0.8
2023-02-15T08:14:07.121Z,0.9
2023-02-15T08:24:07.906Z,0.8
2023-02-15T08:34:08.809Z,0.7
2023-02-15T08:44:09.546Z,0.6
2023-02-15T08:54:10.458Z,0.9
2023-02-15T09:04:11.257Z,0.7
2023-02-15T09:14:11.943Z,0.7
2023-02-15T09:24:12.729Z,1
2023-02-15T09:34:13.568Z,0.8
2023-02-15T09:44:14.337Z,0.8
2023-02-15T09:54:15.260Z,0.9
2023-02-15T10:04:16.248Z,1.2
2023-02-15T10:14:16.895Z,1
2023-02-15T10:24:17.654Z,1
2023-02-15T10:34:18.519Z,1.1
2023-02-15T10:44:19.369Z,1.1
2023-02-15T10:54:20.318Z,0.8
2023-02-15T11:04:21.580Z,1
2023-02-15T11:14:22.295Z,0.9
2023-02-15T11:24:23.259Z,0.9
2023-02-15T11:34:24.162Z,1
2023-02-15T11:44:25.032Z,1
2023-02-15T11:54:26.081Z,1
2023-02-15T12:04:27.003Z,1.2
2023-02-15T12:14:27.893Z,1.1
2023-02-15T12:24:28.836Z,1.5
2023-02-15T12:34:30.138Z,1
2023-02-15T12:44:30.971Z,1.3
2023-02-15T12:54:31.910Z,1.3
2023-02-15T13:04:33.064Z,1.1
2023-02-15T13:14:34.153Z,1.1
2023-02-15T13:29:08.849Z,1
2023-02-15T13:34:36.760Z,1.1
2023-02-15T13:44:37.687Z,1.3
2023-02-15T13:54:39.072Z,1
2023-02-15T14:04:40.375Z,0.9
2023-02-15T14:14:41.755Z,1
2023-02-15T14:24:43.146Z,1
2023-02-15T14:34:44.666Z,1.1
2023-02-15T14:44:46.105Z,1.2
2023-02-15T14:54:47.684Z,1
2023-02-15T15:04:49.250Z,1.2
2023-02-15T15:14:50.930Z,1.2
2023-02-15T15:24:52.623Z,1.1
2023-02-15T15:34:54.333Z,1.1
2023-02-15T15:44:56.107Z,1
2023-02-15T15:54:57.947Z,1.2
2023-02-15T16:04:59.808Z,1
2023-02-15T16:15:01.693Z,0.9
2023-02-15T16:25:03.565Z,0.9
2023-02-15T16:35:05.520Z,0.8
2023-02-15T16:45:07.561Z,0.8
2023-02-15T16:55:09.595Z,1.1
2023-02-15T16:57:12.154Z,1.1
2023-02-15T16:57:52.646Z,1.1
2023-02-15T16:58:43.622Z,1.1
2023-02-15T17:02:59.244Z,1.1
2023-02-15T17:05:11.784Z,0.9
2023-02-15T17:15:17.270Z,0.9
2023-02-15T17:25:15.891Z,1
2023-02-15T17:35:18.028Z,1.1
2023-02-15T17:45:20.150Z,0.9
2023-02-15T17:55:22.263Z,1.3
2023-02-15T18:05:24.411Z,1.7
2023-02-15T18:15:26.470Z,2
2023-02-15T18:25:28.580Z,2.1
2023-02-15T18:35:30.697Z,2.2
2023-02-15T18:45:33.102Z,2.4
2023-02-15T18:55:34.937Z,2.5
2023-02-15T19:05:37.052Z,2.4
2023-02-15T19:15:39.193Z,3.3
2023-02-15T19:25:41.253Z,1.4
2023-02-15T19:35:43.405Z,1.8
2023-02-15T19:45:45.610Z,1.9
2023-02-15T19:55:47.699Z,1.5
2023-02-15T20:05:49.786Z,1.2
2023-02-15T20:15:51.948Z,2.1
2023-02-15T20:25:53.977Z,1.8
2023-02-15T20:35:56.129Z,1.9
2023-02-15T20:45:58.193Z,1.8
2023-02-15T20:56:00.313Z,1.4
2023-02-15T21:06:02.439Z,1.5
2023-02-15T21:16:04.475Z,1.6
2023-02-15T21:26:06.630Z,1.6
2023-02-15T21:36:08.728Z,1.6
2023-02-15T21:46:10.838Z,2.1
2023-02-15T21:56:12.893Z,1.9
2023-02-15T22:06:14.962Z,2.1
2023-02-15T22:16:17.081Z,2.2
2023-02-15T22:26:19.090Z,2
2023-02-15T22:36:20.920Z,2.4
2023-02-15T22:46:22.771Z,2.7
2023-02-15T22:56:26.520Z,2.4
2023-02-15T23:06:26.476Z,2.5
2023-02-15T23:16:28.341Z,2.5
2023-02-15T23:26:29.981Z,2.5
2023-02-15T23:36:31.680Z,2.8
2023-02-15T23:46:33.358Z,3
2023-02-15T23:56:35.140Z,2.8
